createdAt,value
2023-02-27T00:00:20.366Z,-3.19
2023-02-27T00:02:52.903Z,-3.23
2023-02-27T00:05:22.639Z,-3.09
2023-02-27T00:07:54.466Z,-3.12
2023-02-27T00:10:23.671Z,-3.05
2023-02-27T00:12:52.712Z,-3.10
2023-02-27T00:15:23.061Z,-3.10
2023-02-27T00:17:54.123Z,-3.18
2023-02-27T00:20:23.806Z,-3.12
2023-02-27T00:22:54.959Z,-3.41
2023-02-27T00:25:24.236Z,-3.23
2023-02-27T00:27:53.507Z,-3.22
2023-02-27T00:30:22.772Z,-3.39
2023-02-27T00:32:52.073Z,-3.24
2023-02-27T00:35:22.052Z,-3.21
2023-02-27T00:37:52.026Z,-3.22
2023-02-27T00:40:25.944Z,-3.24
2023-02-27T00:45:31.941Z,-3.41
2023-02-27T00:48:09.408Z,-3.28
2023-02-27T00:50:38.623Z,-3.25
2023-02-27T00:53:07.782Z,-3.33
2023-02-27T00:55:39.168Z,-3.29
2023-02-27T00:58:08.602Z,-3.25
2023-02-27T01:00:37.874Z,-3.24
2023-02-27T01:03:12.262Z,-3.27
2023-02-27T01:05:41.625Z,-3.28
2023-02-27T01:08:10.652Z,-3.12
2023-02-27T01:10:44.536Z,-3.18
2023-02-27T01:13:13.741Z,-3.24
2023-02-27T01:15:42.874Z,-3.28
2023-02-27T01:18:18.068Z,-3.25
2023-02-27T01:20:47.323Z,-3.27
2023-02-27T01:23:16.550Z,-3.23
2023-02-27T01:25:48.467Z,-3.25
2023-02-27T01:28:17.666Z,-3.28
2023-02-27T01:30:46.851Z,-3.38
2023-02-27T01:33:17.572Z,-3.50
2023-02-27T01:35:47.022Z,-3.32
2023-02-27T01:38:16.250Z,-3.34
2023-02-27T01:40:47.387Z,-3.67
2023-02-27T01:43:22.695Z,-3.45
2023-02-27T01:45:55.141Z,-3.61
2023-02-27T01:48:28.815Z,-3.61
2023-02-27T01:51:03.356Z,-3.53
2023-02-27T01:53:36.656Z,-3.63
2023-02-27T01:56:19.245Z,-3.50
2023-02-27T01:58:51.297Z,-3.56
2023-02-27T02:01:21.534Z,-3.53
2023-02-27T02:03:56.064Z,-3.52
2023-02-27T02:06:27.401Z,-3.53
2023-02-27T02:08:58.022Z,-3.56
2023-02-27T02:14:10.251Z,-3.64
2023-02-27T02:17:03.727Z,-3.58
2023-02-27T02:19:56.700Z,-3.52
2023-02-27T02:23:04.963Z,-3.52
2023-02-27T02:26:10.421Z,-3.58
2023-02-27T02:29:16.566Z,-3.72
2023-02-27T02:32:23.905Z,-3.51
2023-02-27T02:35:15.847Z,-3.49
2023-02-27T02:38:30.546Z,-3.50
2023-02-27T02:41:12.482Z,-3.56
2023-02-27T02:43:51.052Z,-3.60
2023-02-27T02:46:34.195Z,-3.58
2023-02-27T02:49:11.482Z,-3.52
2023-02-27T02:54:40.905Z,-3.63
2023-02-27T02:57:24.560Z,-3.65
2023-02-27T02:59:59.941Z,-3.61
2023-02-27T03:02:40.399Z,-3.54
2023-02-27T03:05:14.589Z,-3.49
2023-02-27T03:07:48.920Z,-3.64
2023-02-27T03:10:23.065Z,-3.60
2023-02-27T03:12:59.553Z,-3.68
2023-02-27T03:15:40.636Z,-3.65
2023-02-27T03:18:25.876Z,-3.72
2023-02-27T03:21:05.225Z,-3.74
2023-02-27T03:23:39.521Z,-3.67
2023-02-27T03:26:12.887Z,-3.67
2023-02-27T03:29:00.836Z,-3.60
2023-02-27T03:31:35.952Z,-3.68
2023-02-27T03:34:20.565Z,-3.65
2023-02-27T03:37:04.280Z,-3.63
2023-02-27T03:39:41.959Z,-3.64
2023-02-27T03:42:21.205Z,-3.70
2023-02-27T03:45:18.439Z,-3.64
2023-02-27T03:47:48.745Z,-3.59
2023-02-27T03:50:23.892Z,-3.63
2023-02-27T03:52:53.751Z,-3.70
2023-02-27T03:55:35.863Z,-3.88
2023-02-27T03:58:07.807Z,-3.89
2023-02-27T04:00:37.355Z,-3.81
2023-02-27T04:03:08.013Z,-3.79
2023-02-27T04:05:38.758Z,-3.82
2023-02-27T04:08:31.792Z,-3.77
2023-02-27T04:11:26.556Z,-3.78
2023-02-27T04:14:13.031Z,-3.75
2023-02-27T04:16:56.183Z,-3.69
2023-02-27T04:19:46.001Z,-3.71
2023-02-27T04:22:30.115Z,-3.86
2023-02-27T04:25:12.796Z,-3.96
2023-02-27T04:27:59.970Z,-3.95
2023-02-27T04:30:38.282Z,-3.88
2023-02-27T04:35:54.459Z,-3.94
2023-02-27T04:38:31.831Z,-3.87
2023-02-27T04:41:08.120Z,-3.93
2023-02-27T04:43:39.893Z,-3.92
2023-02-27T04:46:15.063Z,-4.01
2023-02-27T04:48:52.988Z,-3.89
2023-02-27T04:51:29.545Z,-3.98
2023-02-27T04:54:04.098Z,-3.99
2023-02-27T04:56:37.017Z,-4.23
2023-02-27T04:59:10.877Z,-4.00
2023-02-27T05:01:45.950Z,-4.07
2023-02-27T05:04:19.460Z,-3.99
2023-02-27T05:07:03.014Z,-3.89
2023-02-27T05:09:37.303Z,-3.94
2023-02-27T05:14:53.038Z,-3.88
2023-02-27T05:17:33.667Z,-4.01
2023-02-27T05:20:04.747Z,-3.90
2023-02-27T05:22:47.278Z,-3.99
2023-02-27T05:25:22.671Z,-3.96
2023-02-27T05:28:04.106Z,-3.92
2023-02-27T05:30:38.827Z,-3.96
2023-02-27T05:33:22.328Z,-3.93
2023-02-27T05:36:00.834Z,-3.92
2023-02-27T05:38:35.541Z,-3.99
2023-02-27T05:41:12.248Z,-4.07
2023-02-27T05:43:48.365Z,-4.13
2023-02-27T05:46:22.848Z,-3.95
2023-02-27T05:49:03.665Z,-3.90
2023-02-27T05:51:37.508Z,-4.08
2023-02-27T05:54:12.259Z,-3.90
2023-02-27T05:56:44.764Z,-3.86
2023-02-27T05:59:25.428Z,-3.87
2023-02-27T06:01:55.364Z,-3.91
2023-02-27T06:04:30.708Z,-3.78
2023-02-27T06:07:01.428Z,-3.80
2023-02-27T06:09:37.109Z,-3.82
2023-02-27T06:12:06.517Z,-3.94
2023-02-27T06:14:35.760Z,-3.86
2023-02-27T06:17:05.141Z,-3.89
2023-02-27T06:19:36.298Z,-3.83
2023-02-27T06:22:10.586Z,-3.94
2023-02-27T06:24:40.605Z,-3.80
2023-02-27T06:27:09.927Z,-3.73
2023-02-27T06:29:44.379Z,-3.66
2023-02-27T06:32:14.933Z,-3.69
2023-02-27T06:34:46.150Z,-3.71
2023-02-27T06:37:15.320Z,-3.74
2023-02-27T06:39:44.553Z,-3.74
2023-02-27T06:42:13.994Z,-3.65
2023-02-27T06:44:43.239Z,-3.64
2023-02-27T06:47:12.625Z,-3.55
2023-02-27T06:49:42.127Z,-3.58
2023-02-27T06:52:13.563Z,-3.63
2023-02-27T06:54:42.853Z,-3.44
2023-02-27T06:57:11.941Z,-3.26
2023-02-27T06:59:41.536Z,-3.16
2023-02-27T07:02:12.240Z,-3.19
2023-02-27T07:04:41.431Z,-3.20
2023-02-27T07:07:32.869Z,-3.03
2023-02-27T07:10:03.744Z,-3.06
2023-02-27T07:12:38.318Z,-3.18
2023-02-27T07:15:08.859Z,-3.08
2023-02-27T07:17:43.137Z,-3.09
2023-02-27T07:20:14.052Z,-3.03
2023-02-27T07:22:55.653Z,-3.03
2023-02-27T07:25:24.769Z,-3.06
2023-02-27T07:27:53.947Z,-3.20
2023-02-27T07:30:23.573Z,-2.96
2023-02-27T07:32:53.622Z,-3.03
2023-02-27T07:35:27.909Z,-2.89
2023-02-27T07:37:59.355Z,-2.94
2023-02-27T07:40:28.948Z,-2.87
2023-02-27T07:42:59.209Z,-2.88
2023-02-27T07:45:29.860Z,-3.07
2023-02-27T07:47:58.884Z,-3.16
2023-02-27T07:50:28.060Z,-3.25
2023-02-27T07:52:59.194Z,-3.13
2023-02-27T07:55:28.467Z,-3.07
2023-02-27T07:57:57.794Z,-3.02
2023-02-27T08:00:29.248Z,-2.95
2023-02-27T08:02:58.616Z,-2.91
2023-02-27T08:05:27.760Z,-3.02
2023-02-27T08:07:59.112Z,-2.84
2023-02-27T08:10:28.303Z,-2.92
2023-02-27T08:12:57.728Z,-2.96
2023-02-27T08:15:26.871Z,-2.92
2023-02-27T08:17:55.981Z,-2.88
2023-02-27T08:20:25.494Z,-2.94
2023-02-27T08:22:54.677Z,-2.75
2023-02-27T08:25:26.200Z,-2.78
2023-02-27T08:27:55.344Z,-2.73
2023-02-27T08:30:24.534Z,-2.78
2023-02-27T08:32:55.305Z,-2.71
2023-02-27T08:35:29.695Z,-2.62
2023-02-27T08:38:03.848Z,-2.54
2023-02-27T08:40:35.393Z,-2.55
2023-02-27T08:43:04.971Z,-2.76
2023-02-27T08:45:34.174Z,-2.37
2023-02-27T08:48:03.405Z,-2.17
2023-02-27T08:50:34.994Z,-2.21
2023-02-27T08:53:04.416Z,-2.23
2023-02-27T08:55:35.404Z,-2.30
2023-02-27T08:58:04.539Z,-2.27
2023-02-27T09:00:34.196Z,-2.25
2023-02-27T09:03:03.642Z,-1.92
2023-02-27T09:05:35.029Z,-2.02
2023-02-27T09:08:04.422Z,-1.94
2023-02-27T09:10:35.879Z,-2.22
2023-02-27T09:13:05.111Z,-2.26
2023-02-27T09:15:37.504Z,-2.37
2023-02-27T09:18:07.422Z,-2.33
2023-02-27T09:20:39.857Z,-2.27
2023-02-27T09:23:09.535Z,-2.20
2023-02-27T09:25:41.938Z,-2.44
2023-02-27T09:28:11.619Z,-2.14
2023-02-27T09:30:40.689Z,-2.08
2023-02-27T09:33:20.236Z,-1.88
2023-02-27T09:35:49.749Z,-2.06
2023-02-27T09:38:19.371Z,-2.16
2023-02-27T09:40:53.254Z,-2.26
2023-02-27T09:43:26.857Z,-2.35
2023-02-27T09:45:57.917Z,-2.31
2023-02-27T09:48:33.652Z,-2.31
2023-02-27T09:51:04.002Z,-2.33
2023-02-27T09:53:39.776Z,-2.36
2023-02-27T09:56:18.894Z,-2.34
2023-02-27T09:58:53.250Z,-2.46
2023-02-27T10:01:25.482Z,-2.62
2023-02-27T10:04:17.999Z,-2.52
2023-02-27T10:06:51.328Z,-2.51
2023-02-27T10:09:37.343Z,-2.55
2023-02-27T10:12:35.449Z,-2.50
2023-02-27T10:15:11.286Z,-2.37
2023-02-27T10:17:48.061Z,-2.39
2023-02-27T10:20:24.208Z,-2.33
2023-02-27T10:22:55.237Z,-2.20
2023-02-27T10:25:31.544Z,-2.27
2023-02-27T10:28:13.619Z,-2.16
2023-02-27T10:30:45.944Z,-2.36
2023-02-27T10:36:12.425Z,-2.40
2023-02-27T10:38:53.359Z,-2.42
2023-02-27T10:41:24.807Z,-2.43
2023-02-27T10:43:59.996Z,-2.40
2023-02-27T10:46:31.412Z,-2.51
2023-02-27T10:49:05.625Z,-2.61
2023-02-27T10:51:38.334Z,-2.52
2023-02-27T10:54:27.807Z,-2.48
2023-02-27T10:56:59.165Z,-2.17
2023-02-27T10:59:33.629Z,-1.91
2023-02-27T11:02:05.717Z,-1.64
2023-02-27T11:04:38.676Z,-1.28
2023-02-27T11:07:11.640Z,-1.21
2023-02-27T11:09:46.067Z,-1.31
2023-02-27T11:12:24.421Z,-1.28
2023-02-27T11:14:56.971Z,-1.32
2023-02-27T11:17:31.282Z,-1.30
2023-02-27T11:20:05.212Z,-1.45
2023-02-27T11:22:34.809Z,-1.46
2023-02-27T11:25:20.606Z,-1.59
2023-02-27T11:27:51.689Z,-1.47
2023-02-27T11:30:31.160Z,-1.25
2023-02-27T11:33:12.890Z,-1.07
2023-02-27T11:35:42.367Z,-1.29
2023-02-27T11:38:23.001Z,-1.52
2023-02-27T11:40:56.480Z,-1.93
2023-02-27T11:43:28.573Z,-2.08
2023-02-27T11:46:10.199Z,-2.15
2023-02-27T11:48:54.793Z,-2.21
2023-02-27T11:51:38.427Z,-2.32
2023-02-27T11:54:17.248Z,-2.47
2023-02-27T11:56:49.526Z,-2.59
2023-02-27T11:59:29.845Z,-2.66
2023-02-27T12:02:12.684Z,-2.68
2023-02-27T12:04:54.090Z,-2.70
2023-02-27T12:07:27.823Z,-2.81
2023-02-27T12:10:06.629Z,-2.91
2023-02-27T12:12:49.125Z,-3.05
2023-02-27T12:15:29.146Z,-3.10
2023-02-27T12:18:07.674Z,-2.99
2023-02-27T12:20:40.601Z,-2.96
2023-02-27T12:23:20.555Z,-2.86
2023-02-27T12:25:54.844Z,-2.97
2023-02-27T12:28:33.202Z,-2.86
2023-02-27T12:31:16.439Z,-2.79
2023-02-27T12:33:55.130Z,-2.89
2023-02-27T12:36:24.578Z,-2.88
2023-02-27T12:38:58.970Z,-2.93
2023-02-27T12:41:48.521Z,-2.95
2023-02-27T12:44:44.334Z,-2.89
2023-02-27T12:53:29.293Z,-3.87
2023-02-27T12:56:05.184Z,-3.42
2023-02-27T12:58:45.026Z,-3.06
2023-02-27T13:01:26.544Z,-2.95
2023-02-27T13:04:01.738Z,-2.94
2023-02-27T13:06:37.282Z,-3.05
2023-02-27T13:09:25.457Z,-2.97
2023-02-27T13:12:04.724Z,-2.95
2023-02-27T13:14:44.294Z,-2.87
2023-02-27T13:17:22.835Z,-2.90
2023-02-27T13:20:00.471Z,-2.97
2023-02-27T13:22:39.693Z,-3.02
2023-02-27T13:25:16.279Z,-2.99
2023-02-27T13:27:49.355Z,-3.13
2023-02-27T13:30:25.788Z,-3.08
2023-02-27T13:33:02.208Z,-3.02
2023-02-27T13:35:40.972Z,-3.03
2023-02-27T13:38:35.431Z,-3.00
2023-02-27T13:41:41.439Z,-2.88
2023-02-27T13:44:43.380Z,-3.01
2023-02-27T13:47:43.092Z,-3.07
2023-02-27T13:50:47.763Z,-3.10
2023-02-27T13:53:24.091Z,-3.03
2023-02-27T13:56:01.007Z,-3.16
2023-02-27T13:58:37.328Z,-3.39
2023-02-27T14:01:07.108Z,-3.28
2023-02-27T14:03:36.400Z,-3.27
2023-02-27T14:06:07.930Z,-3.44
2023-02-27T14:08:50.586Z,-3.52
2023-02-27T14:11:24.647Z,-3.49
2023-02-27T14:14:29.364Z,-3.39
2023-02-27T14:17:03.253Z,-3.39
2023-02-27T14:19:56.478Z,-3.41
2023-02-27T14:22:41.730Z,-3.36
2023-02-27T14:25:21.532Z,-3.43
2023-02-27T14:27:56.942Z,-3.40
2023-02-27T14:30:34.296Z,-3.51
2023-02-27T14:33:14.233Z,-3.47
2023-02-27T14:35:48.140Z,-3.47
2023-02-27T14:38:21.948Z,-3.51
2023-02-27T14:41:06.516Z,-3.56
2023-02-27T14:43:40.700Z,-3.49
2023-02-27T14:46:18.156Z,-3.63
2023-02-27T14:48:54.625Z,-3.76
2023-02-27T14:51:25.308Z,-3.69
2023-02-27T14:54:06.612Z,-3.99
2023-02-27T14:56:36.516Z,-3.88
2023-02-27T14:59:23.007Z,-3.84
2023-02-27T15:01:52.874Z,-3.95
2023-02-27T15:04:27.798Z,-4.15
2023-02-27T15:06:59.402Z,-3.94
2023-02-27T15:09:42.830Z,-3.92
2023-02-27T15:12:17.916Z,-4.00
2023-02-27T15:14:51.474Z,-3.98
2023-02-27T15:17:22.350Z,-4.09
2023-02-27T15:19:55.896Z,-4.02
2023-02-27T15:22:38.544Z,-3.99
2023-02-27T15:25:29.447Z,-3.97
2023-02-27T15:28:02.691Z,-3.92
2023-02-27T15:30:36.971Z,-3.86
2023-02-27T15:33:06.701Z,-3.91
2023-02-27T15:35:46.105Z,-4.02
2023-02-27T15:38:28.632Z,-4.07
2023-02-27T15:40:59.161Z,-3.97
2023-02-27T15:43:29.961Z,-3.97
2023-02-27T15:45:59.948Z,-3.89
2023-02-27T15:48:29.637Z,-4.01
2023-02-27T15:51:04.044Z,-3.96
2023-02-27T15:53:34.289Z,-3.98
2023-02-27T15:56:07.217Z,-3.97
2023-02-27T15:58:39.462Z,-3.86
2023-02-27T16:01:11.255Z,-3.99
2023-02-27T16:03:42.208Z,-3.79
2023-02-27T16:06:28.291Z,-3.97
2023-02-27T16:09:00.182Z,-3.97
2023-02-27T16:11:37.092Z,-3.95
2023-02-27T16:14:08.121Z,-3.98
2023-02-27T16:16:38.836Z,-4.15
2023-02-27T16:19:24.280Z,-4.05
2023-02-27T16:22:08.383Z,-4.11
2023-02-27T16:24:37.589Z,-4.06
2023-02-27T16:27:07.387Z,-4.03
2023-02-27T16:29:43.095Z,-4.03
2023-02-27T16:32:23.975Z,-4.12
2023-02-27T16:35:01.266Z,-4.17
2023-02-27T16:37:39.077Z,-4.03
2023-02-27T16:40:16.515Z,-4.14
2023-02-27T16:42:51.634Z,-4.18
2023-02-27T16:45:27.886Z,-4.04
2023-02-27T16:47:59.573Z,-4.18
2023-02-27T16:50:32.287Z,-3.95
2023-02-27T16:53:03.703Z,-3.99
2023-02-27T16:55:43.095Z,-3.97
2023-02-27T16:58:15.698Z,-3.96
2023-02-27T17:00:45.285Z,-3.95
2023-02-27T17:03:14.435Z,-3.94
2023-02-27T17:05:44.791Z,-3.91
2023-02-27T17:08:16.323Z,-4.04
2023-02-27T17:10:45.558Z,-4.08
2023-02-27T17:13:14.955Z,-4.00
2023-02-27T17:15:44.666Z,-3.92
2023-02-27T17:18:14.452Z,-4.01
2023-02-27T17:20:50.947Z,-4.08
2023-02-27T17:23:22.582Z,-4.18
2023-02-27T17:25:53.688Z,-4.12
2023-02-27T17:28:23.687Z,-4.19
2023-02-27T17:30:54.478Z,-4.20
2023-02-27T17:33:28.916Z,-4.05
2023-02-27T17:36:03.956Z,-4.04
2023-02-27T17:38:35.297Z,-4.05
2023-02-27T17:41:13.992Z,-4.06
2023-02-27T17:43:43.658Z,-4.16
2023-02-27T17:46:14.281Z,-4.03
2023-02-27T17:48:45.060Z,-4.03
2023-02-27T17:51:16.326Z,-4.11
2023-02-27T17:53:47.632Z,-4.12
2023-02-27T17:56:17.017Z,-4.09
2023-02-27T17:58:46.508Z,-4.14
2023-02-27T18:01:21.019Z,-4.15
2023-02-27T18:03:50.808Z,-4.29
2023-02-27T18:06:20.745Z,-4.27
2023-02-27T18:08:52.103Z,-4.37
2023-02-27T18:11:23.458Z,-4.35
2023-02-27T18:13:52.833Z,-4.50
2023-02-27T18:16:23.704Z,-4.40
2023-02-27T18:18:52.882Z,-4.44
2023-02-27T18:24:01.053Z,-4.46
2023-02-27T18:26:32.189Z,-4.43
2023-02-27T18:29:02.855Z,-4.51
2023-02-27T18:31:34.215Z,-4.51
2023-02-27T18:34:03.958Z,-4.69
2023-02-27T18:36:33.700Z,-4.57
2023-02-27T18:39:10.344Z,-4.84
2023-02-27T18:41:39.960Z,-4.67
2023-02-27T18:44:10.161Z,-4.56
2023-02-27T18:46:40.380Z,-4.63
2023-02-27T18:49:10.868Z,-4.53
2023-02-27T18:51:46.105Z,-4.50
2023-02-27T18:54:17.354Z,-4.56
2023-02-27T18:56:48.120Z,-4.64
2023-02-27T18:59:17.313Z,-4.69
2023-02-27T19:01:46.424Z,-4.96
2023-02-27T19:04:20.651Z,-5.25
2023-02-27T19:06:49.832Z,-5.39
2023-02-27T19:09:26.795Z,-5.45
2023-02-27T19:11:56.681Z,-5.57
2023-02-27T19:14:26.699Z,-5.62
2023-02-27T19:16:56.440Z,-5.74
2023-02-27T19:19:27.835Z,-5.81
2023-02-27T19:22:02.086Z,-5.77
2023-02-27T19:24:33.258Z,-5.73
2023-02-27T19:27:02.456Z,-5.70
2023-02-27T19:29:32.024Z,-5.83
2023-02-27T19:32:01.628Z,-6.00
2023-02-27T19:34:35.936Z,-5.90
2023-02-27T19:37:05.175Z,-5.95
2023-02-27T19:39:36.209Z,-6.11
2023-02-27T19:42:05.570Z,-6.04
2023-02-27T19:44:34.636Z,-6.00
2023-02-27T19:47:08.902Z,-6.06
2023-02-27T19:49:38.831Z,-6.17
2023-02-27T19:52:10.176Z,-6.22
2023-02-27T19:54:41.837Z,-6.19
2023-02-27T19:57:11.560Z,-6.25
2023-02-27T19:59:40.608Z,-6.33
2023-02-27T20:02:10.194Z,-6.33
2023-02-27T20:04:39.490Z,-6.51
2023-02-27T20:07:13.781Z,-6.47
2023-02-27T20:09:45.029Z,-6.52
2023-02-27T20:12:14.429Z,-6.53
2023-02-27T20:14:44.210Z,-6.50
2023-02-27T20:17:13.540Z,-6.59
2023-02-27T20:19:42.697Z,-6.94
2023-02-27T20:22:13.057Z,-6.90
2023-02-27T20:24:44.324Z,-7.11
2023-02-27T20:27:15.536Z,-7.29
2023-02-27T20:29:44.936Z,-6.89
2023-02-27T20:32:14.696Z,-6.83
2023-02-27T20:34:44.784Z,-7.06
2023-02-27T20:37:14.094Z,-6.89
2023-02-27T20:39:48.355Z,-6.88
2023-02-27T20:42:19.811Z,-6.89
2023-02-27T20:44:51.188Z,-6.97
2023-02-27T20:47:20.438Z,-6.99
2023-02-27T20:49:49.906Z,-6.98
2023-02-27T20:52:19.214Z,-6.96
2023-02-27T20:54:53.289Z,-7.06
2023-02-27T20:57:24.535Z,-7.00
2023-02-27T20:59:54.107Z,-7.06
2023-02-27T21:02:28.440Z,-7.05
2023-02-27T21:07:42.904Z,-7.17
2023-02-27T21:10:18.942Z,-7.29
2023-02-27T21:12:50.168Z,-7.06
2023-02-27T21:15:19.631Z,-7.15
2023-02-27T21:20:24.831Z,-7.27
2023-02-27T21:22:55.295Z,-7.31
2023-02-27T21:25:25.256Z,-7.48
2023-02-27T21:28:01.739Z,-7.37
2023-02-27T21:30:31.274Z,-7.42
2023-02-27T21:33:03.331Z,-7.48
2023-02-27T21:35:33.701Z,-7.56
2023-02-27T21:38:03.382Z,-7.58
2023-02-27T21:40:32.588Z,-7.73
2023-02-27T21:43:08.633Z,-7.78
2023-02-27T21:45:41.515Z,-7.92
2023-02-27T21:48:11.482Z,-7.87
2023-02-27T21:50:40.681Z,-7.87
2023-02-27T21:53:09.973Z,-7.89
2023-02-27T21:55:39.142Z,-7.79
2023-02-27T21:58:11.208Z,-7.94
2023-02-27T22:00:42.811Z,-7.88
2023-02-27T22:03:11.902Z,-7.86
2023-02-27T22:05:42.517Z,-8.08
2023-02-27T22:08:12.203Z,-7.93
2023-02-27T22:10:45.322Z,-7.99
2023-02-27T22:13:17.806Z,-7.95
2023-02-27T22:15:46.848Z,-7.96
2023-02-27T22:18:15.956Z,-7.97
2023-02-27T22:20:50.228Z,-7.91
2023-02-27T22:23:19.533Z,-7.95
2023-02-27T22:25:48.669Z,-8.03
2023-02-27T22:31:09.621Z,-7.85
2023-02-27T22:33:45.890Z,-7.82
2023-02-27T22:36:16.797Z,-7.78
2023-02-27T22:38:53.898Z,-7.78
2023-02-27T22:41:31.093Z,-7.77
2023-02-27T22:44:03.446Z,-7.74
2023-02-27T22:46:34.638Z,-7.74
2023-02-27T22:49:13.913Z,-7.57
2023-02-27T22:51:43.658Z,-7.56
2023-02-27T22:54:14.391Z,-7.55
2023-02-27T22:56:44.272Z,-7.41
2023-02-27T23:01:51.201Z,-7.26
2023-02-27T23:04:21.717Z,-7.26
2023-02-27T23:06:52.782Z,-7.28
2023-02-27T23:09:24.964Z,-7.32
2023-02-27T23:11:57.495Z,-7.37
2023-02-27T23:14:28.622Z,-7.56
2023-02-27T23:17:02.883Z,-7.56
2023-02-27T23:19:32.705Z,-7.68
2023-02-27T23:22:01.796Z,-7.73
2023-02-27T23:24:31.195Z,-7.72
2023-02-27T23:27:02.416Z,-7.66
2023-02-27T23:29:39.319Z,-7.69
2023-02-27T23:32:08.576Z,-7.86
2023-02-27T23:34:49.083Z,-7.85
2023-02-27T23:39:58.861Z,-7.89
2023-02-27T23:42:27.991Z,-8.14
2023-02-27T23:45:12.241Z,-8.06
2023-02-27T23:47:45.025Z,-8.11
2023-02-27T23:50:14.419Z,-8.27
2023-02-27T23:52:43.516Z,-8.11
2023-02-27T23:55:12.957Z,-8.12
2023-02-27T23:57:42.222Z,-8.24
